Time;durP1;ratioP1;P1;durP2;ratioP2;P2;SDS_P1;SDS_P2;PMS_P1;PMS_P2;Temp;Humidity;BMP_temperature;BMP_pressure;BME280_temperature;BME280_humidity;BME280_pressure;Samples;Min_cycle;Max_cycle;Signal;HPM_P1;HPM_P2
2024/02/22 00:01:05;;;;;;;3.47;1.57;;;13.60;76.20;;;;;;4955467;29;20632;-91
2024/02/22 00:03:31;;;;;;;2.58;1.58;;;15.70;79.70;;;;;;4949254;29;20212;-91
2024/02/22 00:05:57;;;;;;;1.88;1.77;;;14.20;81.50;;;;;;4950324;29;20225;-91
2024/02/22 00:08:23;;;;;;;1.40;1.30;;;;;;;;;;4943184;29;20765;-91
2024/02/22 00:10:50;;;;;;;1.65;1.55;;;13.50;77.70;;;;;;4942949;29;20249;-91
2024/02/22 00:13:16;;;;;;;1.50;1.40;;;16.10;83.80;;;;;;4941499;29;20197;-93
2024/02/22 00:15:42;;;;;;;1.80;1.48;;;13.90;81.10;;;;;;4921242;29;20214;-92
2024/02/22 00:18:08;;;;;;;3.30;1.80;;;14.80;84.80;;;;;;4922607;29;20671;-91
2024/02/22 00:20:35;;;;;;;2.47;1.60;;;13.40;83.40;;;;;;4943208;29;20217;-93
2024/02/22 00:23:02;;;;;;;1.80;1.70;;;14.30;83.30;;;;;;4942480;29;20278;-93
2024/02/22 00:25:29;;;;;;;1.70;1.60;;;13.30;83.00;;;;;;4942385;29;20261;-91
2024/02/22 00:27:55;;;;;;;1.75;1.65;;;13.60;81.90;;;;;;4940975;29;20220;-92
2024/02/22 00:30:22;;;;;;;2.00;1.80;;;13.50;85.40;;;;;;4943653;29;20182;-91
2024/02/22 00:32:48;;;;;;;2.65;1.98;;;13.60;84.30;;;;;;4946492;29;20231;-91
2024/02/22 00:35:19;;;;;;;1.77;1.67;;;;;;;;;;4958537;29;20204;-92
2024/02/22 00:37:49;;;;;;;2.70;1.60;;;13.30;81.80;;;;;;4963585;28;20237;-91
2024/02/22 00:40:17;;;;;;;1.48;1.33;;;13.20;85.10;;;;;;4973075;28;20282;-91
2024/02/22 00:42:43;;;;;;;3.30;1.67;;;13.80;86.00;;;;;;4958346;28;20269;-91
2024/02/22 00:45:10;;;;;;;2.47;1.70;;;14.50;87.20;;;;;;4963267;28;20254;-91
2024/02/22 00:47:36;;;;;;;2.60;1.60;;;15.10;87.30;;;;;;4971483;28;20467;-90
2024/02/22 00:50:04;;;;;;;1.45;1.33;;;11.70;85.60;;;;;;4960751;28;20221;-91
2024/02/22 00:52:30;;;;;;;1.67;1.58;;;13.40;87.30;;;;;;4964949;28;20181;-91
2024/02/22 00:54:55;;;;;;;1.50;1.40;;;12.70;87.50;;;;;;4964610;28;20561;-92
2024/02/22 00:57:21;;;;;;;1.70;1.60;;;15.30;90.70;;;;;;4951181;29;20666;-92
2024/02/22 00:59:47;;;;;;;1.67;1.57;;;;;;;;;;4957017;29;20261;-92
2024/02/22 01:02:13;;;;;;;1.63;1.48;;;12.90;87.50;;;;;;4954180;29;20213;-91
2024/02/22 01:04:42;;;;;;;4.50;1.50;;;14.80;91.10;;;;;;4962112;29;20185;-91
2024/02/22 01:07:09;;;;;;;1.50;1.40;;;13.70;90.80;;;;;;4957150;29;20232;-91
2024/02/22 01:09:37;;;;;;;1.80;1.65;;;13.20;91.10;;;;;;4956754;29;20290;-91
2024/02/22 01:12:05;;;;;;;2.85;1.50;;;12.00;91.00;;;;;;4963822;28;20197;-92
2024/02/22 01:14:31;;;;;;;1.70;1.52;;;13.20;92.20;;;;;;4939870;29;20186;-90
2024/02/22 01:16:57;;;;;;;1.27;1.17;;;14.80;92.80;;;;;;4967297;28;20224;-92
2024/02/22 01:19:23;;;;;;;2.60;2.00;;;15.00;93.60;;;;;;4939839;29;20191;-91
2024/02/22 01:21:49;;;;;;;2.57;1.60;;;;;;;;;;4953651;29;20437;-92
2024/02/22 01:24:17;;;;;;;4.15;1.67;;;;;;;;;;4956711;29;20185;-91
2024/02/22 01:26:45;;;;;;;5.95;1.63;;;12.40;92.40;;;;;;4939896;29;20251;-91
2024/02/22 01:29:11;;;;;;;1.58;1.40;;;12.00;95.60;;;;;;4957983;29;20181;-91
2024/02/22 01:31:39;;;;;;;1.50;1.40;;;;;;;;;;4962189;29;20203;-91
2024/02/22 01:34:14;;;;;;;1.58;1.30;;;12.20;93.10;;;;;;4963672;29;20181;-91
2024/02/22 01:36:41;;;;;;;1.92;1.58;;;12.80;95.80;;;;;;4946288;29;20213;-91
2024/02/22 01:39:09;;;;;;;2.00;1.80;;;11.90;94.40;;;;;;4960827;29;20252;-90
2024/02/22 01:41:35;;;;;;;2.17;1.67;;;14.00;97.60;;;;;;4958749;29;20196;-92
2024/02/22 01:44:01;;;;;;;2.10;1.52;;;13.00;95.50;;;;;;4952293;29;20197;-92
2024/02/22 01:46:27;;;;;;;1.60;1.47;;;;;;;;;;4938233;29;20241;-92
2024/02/22 01:48:53;;;;;;;2.20;2.00;;;12.00;95.40;;;;;;4944202;29;20280;-92
2024/02/22 01:51:20;;;;;;;1.33;1.23;;;13.00;97.70;;;;;;4953618;29;20177;-92
2024/02/22 01:53:49;;;;;;;2.00;1.50;;;12.00;96.50;;;;;;4951709;29;20202;-91
2024/02/22 01:56:16;;;;;;;1.90;1.65;;;12.80;97.30;;;;;;4952310;29;20221;-92
2024/02/22 01:59:05;;;;;;;1.70;1.60;;;14.40;98.30;;;;;;4957669;28;20204;-91
2024/02/22 02:01:34;;;;;;;2.03;1.67;;;14.90;98.80;;;;;;4948495;29;20201;-90
2024/02/22 02:04:04;;;;;;;2.20;1.58;;;14.30;98.50;;;;;;4958861;29;20223;-92
2024/02/22 02:06:35;;;;;;;1.73;1.63;;;13.00;99.20;;;;;;4955611;28;20221;-91
2024/02/22 02:09:02;;;;;;;1.80;1.70;;;13.60;99.80;;;;;;4957487;29;20192;-91
2024/02/22 02:11:28;;;;;;;1.40;1.30;;;14.50;99.90;;;;;;4952617;29;20429;-91
2024/02/22 02:13:54;;;;;;;6.22;1.65;;;14.20;99.90;;;;;;4947360;29;20186;-91
2024/02/22 02:16:22;;;;;;;1.38;1.25;;;12.20;99.90;;;;;;4944408;29;20280;-91
2024/02/22 02:18:48;;;;;;;1.52;1.42;;;;;;;;;;4957703;29;20193;-92
2024/02/22 02:21:49;;;;;;;1.50;1.40;;;11.80;99.10;;;;;;4929126;29;20193;-91
2024/02/22 02:24:34;;;;;;;1.30;1.20;;;11.70;99.60;;;;;;4959094;28;20178;-91
2024/02/22 02:27:00;;;;;;;1.45;1.35;;;14.50;99.90;;;;;;4957675;28;20249;-91
2024/02/22 02:29:25;;;;;;;1.40;1.30;;;12.60;99.90;;;;;;4955503;28;20190;-92
2024/02/22 02:31:52;;;;;;;1.60;1.50;;;14.00;99.90;;;;;;4957244;29;20220;-92
2024/02/22 02:34:18;;;;;;;1.42;1.20;;;13.20;99.90;;;;;;4948864;29;20178;-92
2024/02/22 02:36:44;;;;;;;1.20;1.10;;;;;;;;;;4954380;29;20220;-90
2024/02/22 02:39:09;;;;;;;1.90;1.37;;;11.60;99.90;;;;;;4952795;29;20244;-92
2024/02/22 02:41:38;;;;;;;1.33;1.23;;;;;;;;;;4948490;29;20452;-91
2024/02/22 02:44:04;;;;;;;1.63;1.50;;;11.70;99.90;;;;;;4944049;29;20288;-91
2024/02/22 02:46:30;;;;;;;1.48;1.38;;;11.50;99.90;;;;;;4938449;29;20217;-92
2024/02/22 02:48:56;;;;;;;1.60;1.10;;;11.60;99.90;;;;;;4946146;29;20193;-92
2024/02/22 02:51:21;;;;;;;4.37;1.30;;;12.10;99.90;;;;;;4939899;29;20189;-92
2024/02/22 02:53:48;;;;;;;1.50;1.40;;;10.40;99.90;;;;;;4943769;29;20192;-91
2024/02/22 02:56:13;;;;;;;1.90;0.98;;;13.90;99.90;;;;;;4941927;29;20220;-91
2024/02/22 02:58:39;;;;;;;1.30;1.20;;;8.70;99.90;;;;;;4940139;29;20262;-91
2024/02/22 03:01:06;;;;;;;1.17;1.07;;;14.10;99.90;;;;;;4944333;29;20225;-90
2024/02/22 03:03:35;;;;;;;1.50;1.10;;;13.90;99.90;;;;;;4947764;28;20189;-91
2024/02/22 03:06:01;;;;;;;1.00;0.90;;;12.00;99.90;;;;;;4947607;29;20216;-90
2024/02/22 03:08:31;;;;;;;1.57;1.10;;;;;;;;;;4950974;29;20180;-91
2024/02/22 03:10:57;;;;;;;1.10;1.00;;;;;;;;;;4958181;29;20185;-91
2024/02/22 03:13:23;;;;;;;1.40;1.20;;;11.40;99.90;;;;;;4947635;29;20251;-91
2024/02/22 03:15:52;;;;;;;1.30;1.20;;;13.30;99.90;;;;;;4940999;29;20438;-91
2024/02/22 03:21:41;;;;;;;1.45;1.20;;;10.20;99.90;;;;;;4920741;29;20192;-91
2024/02/22 03:24:08;;;;;;;1.07;0.97;;;12.70;99.90;;;;;;4945130;29;20185;-92
2024/02/22 03:26:34;;;;;;;1.20;1.10;;;12.90;99.90;;;;;;4945620;29;20213;-92
2024/02/22 03:29:00;;;;;;;2.50;1.27;;;10.90;99.90;;;;;;4942563;29;20178;-92
2024/02/22 03:31:26;;;;;;;1.07;0.93;;;;;;;;;;4945900;29;20248;-92
2024/02/22 03:33:51;;;;;;;1.40;1.30;;;11.30;99.90;;;;;;4948400;29;20186;-91
2024/02/22 03:36:22;;;;;;;1.17;1.07;;;12.90;99.90;;;;;;4947727;29;20200;-91
2024/02/22 03:38:48;;;;;;;1.60;1.30;;;10.80;99.90;;;;;;4947901;29;20184;-92
2024/02/22 03:41:26;;;;;;;1.37;1.13;;;12.60;99.90;;;;;;4943072;29;20180;-91
2024/02/22 03:43:52;;;;;;;1.48;1.10;;;11.80;99.90;;;;;;4938489;29;20203;-91
2024/02/22 03:46:18;;;;;;;1.60;1.50;;;;;;;;;;4946982;29;20237;-92
2024/02/22 03:48:46;;;;;;;1.25;1.15;;;;;;;;;;4948843;29;20277;-92
2024/02/22 03:51:13;;;;;;;1.63;1.30;;;;;;;;;;4954289;29;20182;-92
2024/02/22 03:53:39;;;;;;;1.23;1.13;;;;;;;;;;4949262;29;20184;-92
2024/02/22 03:56:05;;;;;;;1.38;1.27;;;10.70;99.90;;;;;;4946248;29;20227;-92
2024/02/22 03:58:31;;;;;;;2.40;1.40;;;11.10;99.90;;;;;;4939920;29;20185;-92
2024/02/22 04:01:04;;;;;;;1.50;1.40;;;12.80;99.90;;;;;;4946072;29;20264;-92
2024/02/22 04:03:41;;;;;;;;;;;;;;;;;;;;;
2024/02/22 04:06:07;;;;;;;1.33;1.20;;;12.40;99.90;;;;;;4945059;29;20222;-92
2024/02/22 04:08:33;;;;;;;1.40;1.30;;;11.70;99.90;;;;;;4950411;28;20212;-92
2024/02/22 04:10:59;;;;;;;1.30;1.10;;;;;;;;;;4960825;28;20205;-92
2024/02/22 04:13:25;;;;;;;1.20;1.10;;;10.90;99.90;;;;;;4958936;28;20431;-92
2024/02/22 04:15:51;;;;;;;1.87;1.27;;;13.50;99.90;;;;;;4952281;29;20227;-92
2024/02/22 04:18:20;;;;;;;1.38;1.27;;;11.20;99.90;;;;;;4945733;29;20475;-92
2024/02/22 04:21:07;;;;;;;1.52;1.25;;;12.40;99.90;;;;;;4948059;29;20192;-92
2024/02/22 04:23:35;;;;;;;1.55;1.00;;;11.00;99.90;;;;;;4949184;29;20204;-92
2024/02/22 04:26:03;;;;;;;1.50;1.30;;;11.50;99.90;;;;;;4954927;29;20205;-93
2024/02/22 04:28:29;;;;;;;1.70;1.60;;;10.60;99.90;;;;;;4950541;29;20613;-90
2024/02/22 04:30:54;;;;;;;1.20;1.10;;;10.40;99.90;;;;;;4946365;29;20223;-91
2024/02/22 04:33:20;;;;;;;1.20;1.10;;;;;;;;;;4945561;29;20255;-92
2024/02/22 04:35:48;;;;;;;1.27;1.13;;;10.60;99.90;;;;;;4944845;29;20220;-93
2024/02/22 04:38:13;;;;;;;2.08;1.20;;;9.50;99.90;;;;;;4939196;29;20193;-92
2024/02/22 04:40:42;;;;;;;1.50;1.37;;;;;;;;;;4942375;29;20211;-92
2024/02/22 04:43:13;;;;;;;1.27;1.02;;;;;;;;;;4948282;29;20183;-92
2024/02/22 04:45:56;;;;;;;1.50;1.40;;;10.90;99.90;;;;;;4946537;29;20243;-92
2024/02/22 04:48:23;;;;;;;1.23;1.08;;;10.00;99.90;;;;;;4948036;29;20211;-92
2024/02/22 04:50:53;;;;;;;1.50;1.40;;;11.40;99.90;;;;;;4950082;29;20209;-92
2024/02/22 04:53:19;;;;;;;1.33;1.20;;;11.80;99.90;;;;;;4940333;29;20224;-92
2024/02/22 04:55:45;;;;;;;1.50;1.40;;;11.80;99.90;;;;;;4942282;29;20265;-91
2024/02/22 04:58:14;;;;;;;2.65;1.63;;;12.70;99.90;;;;;;4944825;29;20188;-91
2024/02/22 05:00:40;;;;;;;1.02;0.95;;;9.90;99.90;;;;;;4942699;29;20188;-92
2024/02/22 05:03:10;;;;;;;1.48;1.15;;;12.10;99.90;;;;;;4943250;29;20188;-92
2024/02/22 05:05:38;;;;;;;1.70;1.20;;;11.30;99.90;;;;;;4946165;29;20220;-92
2024/02/22 05:08:10;;;;;;;1.50;1.13;;;12.60;99.90;;;;;;4929457;29;20237;-91
2024/02/22 05:10:38;;;;;;;1.17;1.02;;;11.30;99.90;;;;;;4954065;29;20199;-92
2024/02/22 05:13:11;;;;;;;1.50;1.25;;;11.30;99.90;;;;;;4946157;29;20286;-91
2024/02/22 05:15:37;;;;;;;2.05;1.20;;;10.30;99.90;;;;;;4951261;29;20208;-91
2024/02/22 05:18:04;;;;;;;1.33;1.00;;;;;;;;;;4946530;29;20247;-92
2024/02/22 05:20:34;;;;;;;1.50;1.40;;;10.60;99.90;;;;;;4954919;29;20186;-91
2024/02/22 05:23:00;;;;;;;1.73;1.17;;;11.20;99.90;;;;;;4954853;28;20192;-91
2024/02/22 05:25:27;;;;;;;1.10;1.00;;;;;;;;;;4963310;28;20199;-91
2024/02/22 05:27:55;;;;;;;1.80;1.70;;;10.70;99.90;;;;;;4948252;29;20222;-91
2024/02/22 05:30:23;;;;;;;1.23;1.13;;;10.70;99.90;;;;;;4944927;29;20192;-91
2024/02/22 05:32:48;;;;;;;1.73;0.90;;;12.00;99.90;;;;;;4952031;29;20199;-92
2024/02/22 05:35:14;;;;;;;2.23;1.60;;;;;;;;;;4931910;29;20689;-91
2024/02/22 05:37:42;;;;;;;1.50;1.23;;;10.50;99.90;;;;;;4950231;29;20224;-92
2024/02/22 05:40:08;;;;;;;1.95;1.20;;;12.30;99.90;;;;;;4953483;29;20196;-92
2024/02/22 05:42:36;;;;;;;1.45;1.33;;;10.50;99.90;;;;;;4951778;29;20188;-92
2024/02/22 05:45:02;;;;;;;0.98;0.95;;;10.80;99.90;;;;;;4948119;29;20219;-91
2024/02/22 05:47:28;;;;;;;1.20;1.10;;;;;;;;;;4942880;29;20300;-92
2024/02/22 05:49:55;;;;;;;1.05;0.95;;;10.60;99.90;;;;;;4944618;28;20429;-92
2024/02/22 06:04:03;;;;;;;2.70;1.75;;;8.20;99.90;;;;;;5357245;23;20278;-91
2024/02/22 06:07:06;;;;;;;2.10;1.55;;;11.10;99.90;;;;;;4901800;29;20224;-92
2024/02/22 06:10:02;;;;;;;;;;;;;;;;;;;;;
2024/02/22 06:12:56;;;;;;;;;;;;;;;;;;;;;
2024/02/22 06:22:06;;;;;;;2.00;1.90;;;10.50;99.90;;;;;;4923639;28;20214;-92
2024/02/22 06:24:35;;;;;;;1.02;1.00;;;11.00;99.90;;;;;;4932087;29;20252;-92
2024/02/22 06:30:33;;;;;;;1.80;1.35;;;10.60;99.90;;;;;;4944566;29;20203;-93
2024/02/22 06:36:41;;;;;;;2.50;1.45;;;10.50;99.90;;;;;;4877737;29;20285;-92
2024/02/22 06:40:06;;;;;;;;;;;;;;;;;;;;;
2024/02/22 06:43:10;;;;;;;1.45;1.35;;;10.60;99.90;;;;;;4945845;29;20193;-92
2024/02/22 06:46:38;;;;;;;;;;;;;;;;;;;;;
2024/02/22 06:49:41;;;;;;;;;;;;;;;;;;;;;
2024/02/22 06:51:56;;;;;;;1.60;1.27;;;;;;;;;;4934803;29;20226;-92
2024/02/22 07:00:00;;;;;;;1.67;1.30;;;;;;;;;;4945120;28;20199;-91
2024/02/22 07:03:07;;;;;;;1.95;1.30;;;10.70;99.90;;;;;;4933320;29;20191;-91
2024/02/22 07:05:45;;;;;;;1.42;1.25;;;10.50;99.90;;;;;;4923416;29;20248;-90
2024/02/22 07:08:11;;;;;;;2.13;1.83;;;;;;;;;;4922490;29;20211;-90
2024/02/22 07:10:36;;;;;;;2.20;1.80;;;10.70;99.90;;;;;;4931460;29;20672;-89
2024/02/22 07:13:02;;;;;;;1.80;1.60;;;12.10;99.90;;;;;;4913514;29;20437;-89
2024/02/22 07:15:28;;;;;;;1.93;1.77;;;;;;;;;;4911935;29;20255;-90
2024/02/22 07:17:54;;;;;;;2.80;2.47;;;10.50;99.90;;;;;;4914801;29;20200;-90
2024/02/22 07:20:19;;;;;;;2.47;1.93;;;10.80;99.90;;;;;;4918047;29;20460;-90
2024/02/22 07:22:47;;;;;;;2.20;2.00;;;;;;;;;;4913207;29;20192;-89
2024/02/22 07:25:13;;;;;;;4.28;2.42;;;10.50;99.90;;;;;;4930027;28;20200;-89
2024/02/22 07:27:40;;;;;;;2.45;2.00;;;12.40;99.90;;;;;;4946873;28;20649;-88
2024/02/22 07:30:07;;;;;;;2.50;2.22;;;10.80;99.90;;;;;;4909835;29;20182;-89
2024/02/22 07:32:36;;;;;;;2.85;2.38;;;10.90;99.90;;;;;;4917179;29;20203;-88
2024/02/22 07:35:03;;;;;;;2.42;2.22;;;12.10;99.90;;;;;;4915721;29;20238;-89
2024/02/22 07:37:28;;;;;;;3.38;2.60;;;10.50;99.90;;;;;;4913010;29;20191;-87
2024/02/22 07:39:54;;;;;;;2.60;2.40;;;;;;;;;;4917479;29;20212;-88
2024/02/22 07:42:20;;;;;;;2.95;2.30;;;;;;;;;;4922178;29;20243;-90
2024/02/22 07:44:46;;;;;;;4.27;2.07;;;;;;;;;;4927947;29;20200;-89
2024/02/22 07:47:16;;;;;;;2.35;2.15;;;10.90;99.90;;;;;;4923436;29;20506;-88
2024/02/22 07:49:45;;;;;;;4.07;2.08;;;12.80;99.90;;;;;;4917108;29;20182;-91
2024/02/22 07:59:14;;;;;;;2.53;1.60;;;11.10;99.90;;;;;;4833507;29;20220;-92
2024/02/22 08:01:41;;;;;;;2.50;1.80;;;;;;;;;;4918976;29;20186;-91
2024/02/22 08:04:07;;;;;;;2.38;1.75;;;11.10;99.90;;;;;;4919510;29;20406;-92
2024/02/22 08:06:35;;;;;;;1.92;1.50;;;11.70;99.90;;;;;;4919954;29;20212;-92
2024/02/22 08:09:04;;;;;;;2.42;1.30;;;10.70;99.90;;;;;;4938037;29;20208;-91
2024/02/22 08:11:30;;;;;;;2.50;1.23;;;13.70;99.90;;;;;;4933336;29;20198;-92
2024/02/22 08:14:02;;;;;;;1.52;1.40;;;10.00;99.90;;;;;;4944190;29;20189;-92
2024/02/22 08:16:28;;;;;;;1.45;0.90;;;;;;;;;;4928266;29;20296;-90
2024/02/22 08:18:56;;;;;;;1.40;1.00;;;;;;;;;;4915480;29;20216;-89
2024/02/22 08:21:22;;;;;;;1.65;1.17;;;11.10;99.90;;;;;;4927322;29;20535;-92
2024/02/22 08:23:51;;;;;;;2.23;1.73;;;;;;;;;;4931622;29;20673;-90
2024/02/22 08:26:18;;;;;;;0.80;0.80;;;10.90;99.90;;;;;;4919779;29;20221;-90
2024/02/22 08:28:44;;;;;;;1.75;0.90;;;13.90;99.90;;;;;;4921558;29;20195;-89
2024/02/22 08:31:11;;;;;;;0.93;0.83;;;12.10;99.90;;;;;;4923501;29;20202;-90
2024/02/22 08:33:36;;;;;;;0.90;0.80;;;10.10;99.90;;;;;;4921790;29;20212;-90
2024/02/22 08:36:03;;;;;;;2.20;1.97;;;11.20;99.90;;;;;;4921293;29;20223;-91
2024/02/22 08:38:29;;;;;;;3.08;1.38;;;11.10;99.90;;;;;;4902327;29;20219;-91
2024/02/22 08:40:57;;;;;;;1.20;1.10;;;10.20;99.90;;;;;;4926630;29;20271;-90
2024/02/22 08:43:23;;;;;;;1.10;0.90;;;11.50;99.90;;;;;;4940012;29;20218;-92
2024/02/22 08:45:51;;;;;;;0.70;0.60;;;13.90;99.90;;;;;;4945365;29;20235;-92
2024/02/22 08:48:18;;;;;;;1.35;0.80;;;11.50;99.90;;;;;;4923593;29;20210;-90
2024/02/22 08:51:11;;;;;;;2.33;1.15;;;13.00;99.90;;;;;;4925692;29;20201;-91
2024/02/22 08:53:38;;;;;;;1.38;1.10;;;13.40;99.90;;;;;;4939618;29;20184;-90
2024/02/22 08:56:08;;;;;;;0.90;0.85;;;10.40;99.90;;;;;;4909510;29;20233;-91
2024/02/22 08:58:34;;;;;;;1.45;0.80;;;11.40;99.90;;;;;;4921929;29;20197;-92
2024/02/22 09:01:00;;;;;;;0.80;0.70;;;12.80;99.90;;;;;;4932360;29;20194;-92
2024/02/22 09:03:26;;;;;;;1.35;0.63;;;11.60;99.90;;;;;;4941955;29;20464;-91
2024/02/22 09:05:52;;;;;;;2.20;2.00;;;12.30;99.90;;;;;;4936437;29;20219;-91
2024/02/22 09:08:18;;;;;;;0.80;0.70;;;11.70;99.90;;;;;;4931102;29;20481;-90
2024/02/22 09:10:44;;;;;;;0.80;0.77;;;;;;;;;;4935076;29;20453;-89
2024/02/22 09:13:12;;;;;;;0.80;0.70;;;11.70;99.90;;;;;;4928595;29;20194;-90
2024/02/22 09:16:29;;;;;;;0.80;0.70;;;12.50;99.90;;;;;;4924873;29;20580;-89
2024/02/22 09:19:26;;;;;;;0.90;0.70;;;12.10;99.90;;;;;;4935692;29;20189;-91
2024/02/22 09:24:55;;;;;;;1.20;0.60;;;13.50;99.90;;;;;;4893680;29;20248;-88
2024/02/22 09:27:21;;;;;;;0.90;0.73;;;12.10;99.90;;;;;;4928137;28;20230;-89
2024/02/22 09:29:47;;;;;;;0.97;0.67;;;;;;;;;;4932824;28;20252;-90
2024/02/22 09:32:13;;;;;;;0.70;0.50;;;11.70;99.90;;;;;;4941072;29;20650;-89
2024/02/22 09:34:39;;;;;;;0.67;0.50;;;;;;;;;;4921212;29;20189;-90
2024/02/22 09:37:05;;;;;;;0.73;0.70;;;11.80;99.90;;;;;;4925276;29;20212;-89
2024/02/22 09:39:32;;;;;;;1.05;0.60;;;13.10;99.90;;;;;;4911998;29;20302;-90
2024/02/22 09:42:01;;;;;;;0.80;0.60;;;12.40;99.90;;;;;;4923660;29;20194;-86
2024/02/22 09:44:28;;;;;;;0.60;0.60;;;12.70;99.90;;;;;;4922765;29;20190;-90
2024/02/22 09:46:54;;;;;;;1.08;0.60;;;11.10;99.90;;;;;;4914248;29;20296;-88
2024/02/22 09:49:21;;;;;;;0.73;0.73;;;11.80;99.90;;;;;;4906315;29;20327;-90
2024/02/22 09:51:50;;;;;;;0.70;0.60;;;14.40;99.90;;;;;;4912781;29;20480;-89
2024/02/22 09:54:19;;;;;;;1.38;0.70;;;10.80;99.90;;;;;;4912263;29;20197;-88
2024/02/22 09:56:45;;;;;;;0.80;0.60;;;11.90;99.90;;;;;;4910060;29;20217;-89
2024/02/22 09:59:12;;;;;;;0.70;0.60;;;12.80;99.90;;;;;;4910050;29;20221;-90
2024/02/22 10:02:05;;;;;;;1.23;0.80;;;13.90;99.90;;;;;;4913583;29;20264;-89
2024/02/22 10:04:32;;;;;;;1.00;0.60;;;12.30;99.90;;;;;;4905894;29;20263;-89
2024/02/22 10:07:01;;;;;;;0.70;0.60;;;13.80;99.90;;;;;;4911621;29;20300;-89
2024/02/22 10:09:40;;;;;;;0.90;0.60;;;13.80;99.90;;;;;;4913328;29;20600;-89
2024/02/22 10:12:06;;;;;;;0.80;0.68;;;12.40;99.90;;;;;;4925564;29;20315;-90
2024/02/22 10:14:35;;;;;;;0.60;0.60;;;12.40;99.90;;;;;;4908277;29;20272;-89
2024/02/22 10:17:05;;;;;;;0.90;0.70;;;11.50;99.90;;;;;;4907163;29;20608;-90
2024/02/22 10:19:32;;;;;;;0.70;0.60;;;12.70;99.90;;;;;;4909459;29;20336;-89
2024/02/22 10:21:58;;;;;;;1.13;0.60;;;12.60;99.90;;;;;;4909483;29;20190;-89
2024/02/22 10:24:29;;;;;;;0.87;0.70;;;12.00;99.90;;;;;;4908619;29;20197;-88
2024/02/22 10:27:02;;;;;;;0.80;0.57;;;14.40;99.90;;;;;;4925539;29;20212;-88
2024/02/22 10:29:28;;;;;;;0.93;0.60;;;12.60;99.90;;;;;;4925229;29;20240;-89
2024/02/22 10:31:54;;;;;;;0.70;0.60;;;12.40;99.90;;;;;;4906805;29;20595;-88
2024/02/22 10:34:21;;;;;;;1.33;0.50;;;13.60;99.90;;;;;;4908725;29;20182;-87
2024/02/22 10:36:48;;;;;;;0.90;0.68;;;14.80;99.90;;;;;;4908941;29;20243;-89
2024/02/22 10:39:13;;;;;;;0.73;0.60;;;11.70;99.90;;;;;;4910186;29;20406;-89
2024/02/22 10:41:40;;;;;;;1.10;0.70;;;;;;;;;;4922268;29;20206;-88
2024/02/22 10:44:06;;;;;;;0.80;0.60;;;12.60;99.90;;;;;;4920853;29;20514;-87
2024/02/22 10:46:37;;;;;;;0.80;0.65;;;13.60;99.90;;;;;;4921139;29;20213;-87
2024/02/22 10:49:08;;;;;;;0.75;0.60;;;14.10;99.90;;;;;;4917148;29;20189;-87
2024/02/22 10:51:34;;;;;;;0.90;0.70;;;13.80;99.90;;;;;;4922617;29;20275;-88
2024/02/22 10:54:03;;;;;;;1.08;0.75;;;14.40;99.90;;;;;;4919707;29;20178;-87
2024/02/22 10:56:31;;;;;;;0.70;0.60;;;12.50;99.90;;;;;;4919835;29;20213;-88
2024/02/22 10:59:04;;;;;;;1.05;0.70;;;15.00;99.90;;;;;;4917374;29;20655;-87
2024/02/22 11:01:32;;;;;;;0.60;0.50;;;13.80;99.90;;;;;;4938447;29;20188;-87
2024/02/22 11:03:58;;;;;;;0.77;0.60;;;14.30;99.90;;;;;;4919399;29;20200;-89
2024/02/22 11:06:24;;;;;;;0.60;0.55;;;15.50;99.90;;;;;;4919591;29;20601;-88
2024/02/22 11:09:00;;;;;;;0.80;0.60;;;14.00;99.90;;;;;;4914010;29;20288;-88
2024/02/22 11:11:27;;;;;;;0.85;0.80;;;13.20;99.90;;;;;;4914785;29;20189;-89
2024/02/22 11:13:59;;;;;;;0.80;0.50;;;13.90;99.90;;;;;;4920047;29;20248;-87
2024/02/22 11:16:35;;;;;;;0.90;0.65;;;14.20;99.90;;;;;;4921150;29;20213;-88
2024/02/22 11:19:05;;;;;;;1.10;1.00;;;13.40;99.90;;;;;;4936386;29;20185;-88
2024/02/22 11:21:31;;;;;;;0.60;0.50;;;12.30;99.90;;;;;;4915937;29;21562;-89
2024/02/22 11:24:13;;;;;;;0.60;0.50;;;11.50;99.90;;;;;;4927018;29;20181;-89
2024/02/22 11:26:40;;;;;;;0.80;0.60;;;12.10;99.90;;;;;;4915456;29;20564;-88
2024/02/22 11:29:06;;;;;;;0.82;0.57;;;13.10;99.90;;;;;;4915995;29;20231;-90
2024/02/22 11:31:32;;;;;;;1.55;0.73;;;14.10;99.90;;;;;;4915473;29;20247;-88
2024/02/22 11:34:00;;;;;;;0.80;0.60;;;10.70;99.90;;;;;;4920172;29;20603;-89
2024/02/22 11:36:26;;;;;;;1.52;0.63;;;;;;;;;;4923896;29;20212;-89
2024/02/22 11:38:59;;;;;;;0.70;0.50;;;12.00;99.90;;;;;;4915514;29;20185;-89
2024/02/22 11:41:25;;;;;;;0.70;0.50;;;12.10;99.90;;;;;;4918587;29;20292;-87
2024/02/22 11:43:50;;;;;;;0.70;0.50;;;13.60;99.90;;;;;;4915628;29;20209;-89
2024/02/22 11:46:17;;;;;;;1.33;0.70;;;13.50;99.90;;;;;;4913392;29;20237;-89
2024/02/22 11:48:43;;;;;;;0.75;0.57;;;11.80;99.90;;;;;;4920343;29;20707;-88
2024/02/22 11:51:09;;;;;;;1.30;0.52;;;13.70;99.90;;;;;;4917827;29;20184;-88
2024/02/22 11:53:35;;;;;;;1.90;0.60;;;12.90;99.90;;;;;;4918790;29;20187;-89
2024/02/22 11:56:00;;;;;;;0.70;0.50;;;10.80;99.90;;;;;;4913730;29;20644;-88
2024/02/22 11:58:26;;;;;;;2.10;0.70;;;;;;;;;;4914782;29;20197;-88
2024/02/22 12:00:52;;;;;;;1.00;0.60;;;12.10;99.90;;;;;;4916317;29;20190;-88
2024/02/22 12:03:18;;;;;;;0.88;0.70;;;11.20;99.90;;;;;;4914441;29;21148;-88
2024/02/22 12:05:46;;;;;;;0.70;0.50;;;12.80;99.90;;;;;;4930601;29;20232;-88
2024/02/22 12:08:12;;;;;;;0.90;0.77;;;15.60;99.90;;;;;;4936817;29;20216;-87
2024/02/22 12:10:38;;;;;;;1.02;0.60;;;14.80;99.90;;;;;;4929049;29;20190;-87
2024/02/22 12:13:04;;;;;;;0.73;0.60;;;12.80;99.90;;;;;;4918636;29;20679;-88
2024/02/22 12:15:30;;;;;;;0.82;0.75;;;15.40;99.90;;;;;;4914311;29;20205;-88
2024/02/22 12:17:57;;;;;;;0.80;0.60;;;15.70;99.90;;;;;;4918044;29;20189;-87
2024/02/22 12:20:23;;;;;;;0.60;0.50;;;14.20;99.90;;;;;;4920434;29;20304;-88
2024/02/22 12:22:50;;;;;;;0.97;0.63;;;;;;;;;;4919505;29;20284;-88
2024/02/22 12:25:16;;;;;;;1.10;0.60;;;13.70;99.90;;;;;;4918648;29;20559;-88
2024/02/22 12:27:42;;;;;;;0.90;0.60;;;;;;;;;;4916505;29;20695;-87
2024/02/22 12:30:08;;;;;;;2.38;0.70;;;13.50;99.90;;;;;;4931668;29;20265;-87
2024/02/22 12:32:34;;;;;;;2.25;0.60;;;13.50;99.90;;;;;;4916745;29;20201;-88
2024/02/22 12:35:00;;;;;;;0.70;0.50;;;;;;;;;;4917509;29;20588;-88
2024/02/22 12:37:27;;;;;;;1.57;0.50;;;13.10;99.90;;;;;;4917234;29;20243;-88
2024/02/22 12:39:52;;;;;;;0.90;0.70;;;14.30;99.90;;;;;;4917594;29;20464;-87
2024/02/22 12:42:18;;;;;;;1.00;0.50;;;11.40;99.90;;;;;;4923143;29;20197;-88
2024/02/22 12:44:44;;;;;;;0.70;0.55;;;13.00;99.90;;;;;;4916117;29;20251;-89
2024/02/22 12:47:12;;;;;;;0.90;0.80;;;14.40;99.90;;;;;;4920477;29;20202;-87
2024/02/22 12:49:38;;;;;;;0.70;0.57;;;13.90;99.90;;;;;;4919843;29;20185;-87
2024/02/22 12:52:05;;;;;;;1.03;0.60;;;13.80;99.90;;;;;;4916921;29;20236;-87
2024/02/22 12:54:32;;;;;;;0.70;0.50;;;12.50;99.90;;;;;;4913597;29;20442;-87
2024/02/22 12:56:58;;;;;;;1.33;0.60;;;15.40;99.90;;;;;;4915926;29;20219;-87
2024/02/22 12:59:24;;;;;;;1.00;0.43;;;;;;;;;;4916990;29;20190;-87
2024/02/22 13:01:50;;;;;;;1.30;0.60;;;13.00;99.90;;;;;;4920006;29;20192;-88
2024/02/22 13:04:16;;;;;;;0.80;0.60;;;14.20;99.90;;;;;;4922622;29;20442;-87
2024/02/22 13:06:42;;;;;;;0.80;0.57;;;14.20;99.90;;;;;;4919891;29;20469;-87
2024/02/22 13:09:07;;;;;;;0.90;0.60;;;11.80;99.90;;;;;;4916938;29;20663;-89
2024/02/22 13:11:33;;;;;;;1.10;0.80;;;;;;;;;;4931390;29;20178;-89
2024/02/22 13:13:59;;;;;;;0.68;0.52;;;12.80;99.90;;;;;;4920351;29;20185;-89
2024/02/22 13:16:27;;;;;;;0.63;0.50;;;;;;;;;;4920417;29;20206;-87
2024/02/22 13:19:01;;;;;;;0.90;0.60;;;12.70;99.90;;;;;;4919150;29;20217;-89
2024/02/22 13:21:27;;;;;;;0.70;0.57;;;14.10;99.90;;;;;;4916230;29;20189;-88
2024/02/22 13:23:53;;;;;;;0.90;0.70;;;;;;;;;;4911152;29;20178;-88
2024/02/22 13:26:19;;;;;;;0.73;0.55;;;13.00;99.90;;;;;;4929531;29;20223;-89
2024/02/22 13:28:47;;;;;;;0.90;0.70;;;;;;;;;;4917211;29;20647;-88
2024/02/22 13:31:12;;;;;;;0.70;0.60;;;12.60;99.90;;;;;;4913399;29;20803;-89
2024/02/22 13:33:39;;;;;;;0.90;0.60;;;13.80;99.90;;;;;;4918014;29;20193;-89
2024/02/22 13:36:05;;;;;;;0.70;0.60;;;13.20;99.90;;;;;;4918968;29;20807;-89
2024/02/22 13:38:32;;;;;;;0.80;0.80;;;12.50;99.90;;;;;;4917404;29;21812;-89
2024/02/22 13:41:00;;;;;;;0.70;0.60;;;14.60;99.90;;;;;;4916945;29;20433;-89
2024/02/22 13:43:26;;;;;;;0.70;0.65;;;14.20;99.90;;;;;;4937653;29;20718;-89
2024/02/22 13:45:52;;;;;;;1.75;0.60;;;11.80;99.90;;;;;;4915569;29;20264;-88
2024/02/22 13:48:18;;;;;;;0.67;0.60;;;;;;;;;;4922347;29;20209;-88
2024/02/22 13:50:43;;;;;;;0.63;0.63;;;12.40;99.90;;;;;;4916363;29;20185;-89
2024/02/22 13:53:09;;;;;;;0.70;0.70;;;;;;;;;;4916575;29;20463;-89
2024/02/22 13:55:35;;;;;;;0.75;0.70;;;12.20;99.90;;;;;;4931897;29;20226;-88
2024/02/22 13:58:01;;;;;;;0.90;0.60;;;;;;;;;;4917158;29;20224;-88
2024/02/22 14:00:27;;;;;;;0.63;0.55;;;12.10;99.90;;;;;;4917422;29;20204;-88
2024/02/22 14:02:53;;;;;;;0.70;0.53;;;13.70;99.90;;;;;;4918554;29;20186;-89